Time;durP1;ratioP1;P1;durP2;ratioP2;P2;SDS_P1;SDS_P2;PMS_P1;PMS_P2;Temp;Humidity;BMP_temperature;BMP_pressure;BME280_temperature;BME280_humidity;BME280_pressure;Samples;Min_cycle;Max_cycle;Signal;HPM_P1;HPM_P2
2022/05/04 00:02:24;;;;;;;;;37.75;32.25;;;;;;;;5082426;27;45302;-78
2022/05/04 00:04:49;;;;;;;;;37.25;32.25;;;;;;;;5082150;27;45326;-78
2022/05/04 00:07:14;;;;;;;;;34.75;31.75;;;;;;;;5082191;27;45334;-78
2022/05/04 00:09:40;;;;;;;;;36.00;31.75;;;;;;;;5082507;27;45306;-78
2022/05/04 00:12:05;;;;;;;;;32.25;30.50;;;;;;;;5081978;27;45358;-78
2022/05/04 00:14:30;;;;;;;;;36.25;32.50;;;;;;;;5081884;27;45223;-78
2022/05/04 00:16:56;;;;;;;;;36.75;31.00;;;;;;;;5102265;27;45345;-78
2022/05/04 00:19:21;;;;;;;;;40.50;32.00;;;;;;;;5101324;27;45325;-78
2022/05/04 00:21:46;;;;;;;;;36.50;31.00;;;;;;;;5102570;27;45542;-78
2022/05/04 00:24:11;;;;;;;;;34.75;30.50;;;;;;;;5102388;27;45307;-78
2022/05/04 00:26:37;;;;;;;;;35.50;31.75;;;;;;;;5102677;27;45370;-79
2022/05/04 00:29:02;;;;;;;;;40.50;33.25;;;;;;;;5102334;27;45453;-79
2022/05/04 00:31:27;;;;;;;;;36.75;31.75;;;;;;;;5102190;27;45368;-78
2022/05/04 00:33:53;;;;;;;;;35.50;30.50;;;;;;;;5101034;27;48162;-78
2022/05/04 00:36:18;;;;;;;;;40.50;35.00;;;;;;;;5102281;27;45226;-78
2022/05/04 00:38:43;;;;;;;;;35.50;31.50;;;;;;;;5102380;27;45286;-78
2022/05/04 00:41:08;;;;;;;;;41.25;34.75;;;;;;;;5102264;27;45426;-78
2022/05/04 00:43:33;;;;;;;;;35.50;32.25;;;;;;;;5100688;27;48502;-78
2022/05/04 00:45:59;;;;;;;;;36.75;31.75;;;;;;;;5102313;27;45157;-78
2022/05/04 00:48:24;;;;;;;;;36.00;31.75;;;;;;;;5102325;27;45813;-78
2022/05/04 00:50:50;;;;;;;;;31.50;29.75;;;;;;;;5100580;27;46220;-79
2022/05/04 00:53:17;;;;;;;;;36.75;32.00;;;;;;;;5101865;27;45358;-78
2022/05/04 00:55:43;;;;;;;;;35.50;31.50;;;;;;;;5117765;27;45404;-78
2022/05/04 01:00:53;;;;;;;;;39.25;34.00;;;;;;;;5101757;27;45250;-78
2022/05/04 01:03:18;;;;;;;;;38.25;33.25;;;;;;;;5101780;27;46242;-78
2022/05/04 01:05:44;;;;;;;;;41.00;35.75;;;;;;;;5100207;27;45631;-79
2022/05/04 01:08:09;;;;;;;;;41.75;34.75;;;;;;;;5100001;27;45641;-78
2022/05/04 01:10:34;;;;;;;;;41.25;34.50;;;;;;;;5101767;27;45265;-78
2022/05/04 01:12:59;;;;;;;;;44.25;34.75;;;;;;;;5101430;27;45212;-78
2022/05/04 01:15:25;;;;;;;;;41.25;34.75;;;;;;;;5110017;27;45358;-78
2022/05/04 01:17:50;;;;;;;;;44.00;35.50;;;;;;;;5081283;28;45248;-78
2022/05/04 01:20:16;;;;;;;;;42.50;36.00;;;;;;;;5081322;27;45354;-78
2022/05/04 01:22:41;;;;;;;;;41.75;35.25;;;;;;;;5079511;28;47174;-78
2022/05/04 01:25:07;;;;;;;;;37.25;31.75;;;;;;;;5081040;27;45844;-78
2022/05/04 01:27:32;;;;;;;;;44.50;36.00;;;;;;;;5081268;27;45326;-78
2022/05/04 01:29:58;;;;;;;;;43.50;35.25;;;;;;;;5080998;27;45222;-78
2022/05/04 01:32:23;;;;;;;;;39.00;32.25;;;;;;;;5080616;27;45316;-77
2022/05/04 01:34:49;;;;;;;;;36.25;31.50;;;;;;;;5081112;27;45346;-78
2022/05/04 01:37:14;;;;;;;;;43.50;36.00;;;;;;;;5080791;27;45595;-78
2022/05/04 01:39:39;;;;;;;;;38.00;32.00;;;;;;;;5080866;27;45337;-78
2022/05/04 01:42:13;;;;;;;;;35.00;33.00;;;;;;;;5080683;27;45418;-79
2022/05/04 01:44:39;;;;;;;;;39.25;34.50;;;;;;;;5079154;28;45645;-78
2022/05/04 01:47:04;;;;;;;;;38.00;33.00;;;;;;;;5080702;27;45383;-78
2022/05/04 01:49:29;;;;;;;;;43.75;35.75;;;;;;;;5080662;27;45318;-78
2022/05/04 01:51:54;;;;;;;;;40.50;34.00;;;;;;;;5080447;27;45420;-78
2022/05/04 01:54:20;;;;;;;;;38.25;34.00;;;;;;;;5080652;27;45336;-78
2022/05/04 01:56:45;;;;;;;;;39.00;32.25;;;;;;;;5080774;27;45339;-78
2022/05/04 01:59:10;;;;;;;;;42.75;37.00;;;;;;;;5080355;28;45272;-78
2022/05/04 02:01:38;;;;;;;;;41.50;33.25;;;;;;;;5080454;27;45487;-78
2022/05/04 02:04:03;;;;;;;;;38.00;32.50;;;;;;;;5080373;27;45314;-78
2022/05/04 02:06:29;;;;;;;;;42.25;33.75;;;;;;;;5080358;27;45434;-78
2022/05/04 02:08:55;;;;;;;;;41.25;34.50;;;;;;;;5079150;28;45948;-78
2022/05/04 02:11:21;;;;;;;;;42.00;33.25;;;;;;;;5080263;27;45687;-78
2022/05/04 02:13:46;;;;;;;;;37.00;32.75;;;;;;;;5079999;27;45325;-78
2022/05/04 02:16:11;;;;;;;;;41.50;35.00;;;;;;;;5092818;27;45247;-79
2022/05/04 02:18:36;;;;;;;;;44.25;37.75;;;;;;;;5099134;27;46059;-78
2022/05/04 02:21:01;;;;;;;;;37.50;32.75;;;;;;;;5100661;27;45407;-78
2022/05/04 02:23:27;;;;;;;;;39.75;33.75;;;;;;;;5100736;27;45302;-79
2022/05/04 02:25:52;;;;;;;;;41.75;35.25;;;;;;;;5100585;27;45262;-79
2022/05/04 02:28:18;;;;;;;;;40.75;34.00;;;;;;;;5100336;27;45313;-78
2022/05/04 02:30:44;;;;;;;;;42.25;35.00;;;;;;;;5100280;27;46055;-79
2022/05/04 02:33:09;;;;;;;;;34.75;30.75;;;;;;;;5100313;27;45482;-79
2022/05/04 02:38:19;;;;;;;;;40.75;35.75;;;;;;;;5100059;27;45326;-78
2022/05/04 02:40:44;;;;;;;;;42.25;35.00;;;;;;;;5100053;27;46430;-79
2022/05/04 02:43:09;;;;;;;;;42.00;34.75;;;;;;;;5100119;27;45471;-79
2022/05/04 02:45:35;;;;;;;;;45.75;38.00;;;;;;;;5100395;27;45243;-78
2022/05/04 02:48:00;;;;;;;;;32.75;30.50;;;;;;;;5098921;27;46145;-78
2022/05/04 02:50:25;;;;;;;;;38.00;33.25;;;;;;;;5100176;27;46050;-78
2022/05/04 02:52:51;;;;;;;;;39.25;33.75;;;;;;;;5098775;27;45976;-79
2022/05/04 02:55:16;;;;;;;;;48.75;38.75;;;;;;;;5100202;27;45397;-78
2022/05/04 02:57:41;;;;;;;;;38.25;34.25;;;;;;;;5100162;27;45328;-77
2022/05/04 03:00:07;;;;;;;;;42.25;35.75;;;;;;;;5098500;27;47248;-78
2022/05/04 03:02:32;;;;;;;;;42.00;36.00;;;;;;;;5100002;27;45336;-79
2022/05/04 03:05:02;;;;;;;;;41.50;34.75;;;;;;;;5100245;27;45476;-78
2022/05/04 03:07:28;;;;;;;;;38.25;34.25;;;;;;;;5098498;27;46266;-78
2022/05/04 03:09:54;;;;;;;;;44.25;36.25;;;;;;;;5099839;27;45452;-77
2022/05/04 03:12:19;;;;;;;;;40.50;33.50;;;;;;;;5099753;27;45718;-78
2022/05/04 03:14:44;;;;;;;;;42.50;36.50;;;;;;;;5098240;27;45338;-78
2022/05/04 03:17:10;;;;;;;;;42.25;36.25;;;;;;;;5078060;28;46151;-78
2022/05/04 03:19:35;;;;;;;;;38.25;34.00;;;;;;;;5079555;27;45329;-78
2022/05/04 03:22:00;;;;;;;;;43.25;35.00;;;;;;;;5079268;27;45232;-78
2022/05/04 03:24:26;;;;;;;;;42.75;35.00;;;;;;;;5078155;28;45271;-79
2022/05/04 03:26:51;;;;;;;;;41.00;35.00;;;;;;;;5079119;27;45441;-78
2022/05/04 03:29:16;;;;;;;;;46.50;39.25;;;;;;;;5077632;28;47184;-78
2022/05/04 03:31:41;;;;;;;;;43.75;35.50;;;;;;;;5082585;28;45625;-78
2022/05/04 03:34:06;;;;;;;;;34.50;30.00;;;;;;;;5081559;28;45482;-78
2022/05/04 03:36:32;;;;;;;;;43.75;35.75;;;;;;;;5081203;28;46097;-78
2022/05/04 03:38:58;;;;;;;;;38.25;34.00;;;;;;;;5082584;27;45914;-79
2022/05/04 03:41:23;;;;;;;;;37.75;33.50;;;;;;;;5082851;27;45789;-79
2022/05/04 03:43:49;;;;;;;;;46.00;36.25;;;;;;;;5082473;27;45365;-77
2022/05/04 03:46:17;;;;;;;;;45.00;36.00;;;;;;;;5082790;27;45530;-78
2022/05/04 03:48:43;;;;;;;;;41.75;35.25;;;;;;;;5082560;27;45330;-78
2022/05/04 03:51:09;;;;;;;;;40.25;34.75;;;;;;;;5082683;28;45284;-78
2022/05/04 03:53:34;;;;;;;;;41.25;35.50;;;;;;;;5082539;28;45210;-78
2022/05/04 03:56:00;;;;;;;;;42.75;35.00;;;;;;;;5082508;27;45727;-80
2022/05/04 03:58:25;;;;;;;;;41.00;34.50;;;;;;;;5080647;28;47460;-78
2022/05/04 04:00:50;;;;;;;;;44.75;36.75;;;;;;;;5082397;27;45329;-78
2022/05/04 04:03:15;;;;;;;;;45.75;35.50;;;;;;;;5080939;28;45374;-78
2022/05/04 04:05:40;;;;;;;;;47.00;39.00;;;;;;;;5082519;27;45336;-76
2022/05/04 04:08:06;;;;;;;;;38.50;33.00;;;;;;;;5081995;27;45314;-76
2022/05/04 04:10:31;;;;;;;;;40.75;33.75;;;;;;;;5080711;28;45993;-76
2022/05/04 04:12:56;;;;;;;;;42.75;35.25;;;;;;;;5081011;28;45519;-76
2022/05/04 04:15:21;;;;;;;;;40.75;34.00;;;;;;;;5089183;27;45535;-77
2022/05/04 04:17:47;;;;;;;;;43.75;36.75;;;;;;;;5101220;27;47015;-77
2022/05/04 04:22:56;;;;;;;;;45.75;38.00;;;;;;;;5090296;27;45286;-77
2022/05/04 04:25:21;;;;;;;;;39.75;34.00;;;;;;;;5081935;27;45511;-77
2022/05/04 04:27:47;;;;;;;;;39.75;34.50;;;;;;;;5082070;27;46113;-77
2022/05/04 04:30:12;;;;;;;;;46.00;37.00;;;;;;;;5081666;27;45441;-77
2022/05/04 04:32:38;;;;;;;;;44.75;36.00;;;;;;;;5080487;28;45449;-77
2022/05/04 04:35:03;;;;;;;;;43.00;35.25;;;;;;;;5080502;28;45885;-77
2022/05/04 04:37:28;;;;;;;;;47.00;34.75;;;;;;;;5081661;27;46016;-77
2022/05/04 04:39:54;;;;;;;;;46.25;37.25;;;;;;;;5081777;28;45338;-76
2022/05/04 04:42:19;;;;;;;;;45.25;37.75;;;;;;;;5079189;28;45366;-78
2022/05/04 04:44:45;;;;;;;;;46.25;34.75;;;;;;;;5079783;28;46022;-77
2022/05/04 04:47:10;;;;;;;;;43.50;37.25;;;;;;;;5081690;28;45350;-76
2022/05/04 04:49:35;;;;;;;;;46.50;36.75;;;;;;;;5081103;28;45279;-77
2022/05/04 04:52:00;;;;;;;;;44.75;36.50;;;;;;;;5081939;27;45308;-78
2022/05/04 04:54:26;;;;;;;;;43.50;36.25;;;;;;;;5081171;27;45357;-77
2022/05/04 04:56:51;;;;;;;;;40.75;34.25;;;;;;;;5079805;28;47050;-77
2022/05/04 04:59:16;;;;;;;;;44.50;36.75;;;;;;;;5079962;28;46084;-77
2022/05/04 05:01:41;;;;;;;;;36.75;33.50;;;;;;;;5079828;28;45460;-77
2022/05/04 05:04:07;;;;;;;;;46.25;35.50;;;;;;;;5077107;28;47169;-75
2022/05/04 05:06:32;;;;;;;;;39.00;33.50;;;;;;;;5077105;28;48501;-75
2022/05/04 05:08:57;;;;;;;;;43.50;36.00;;;;;;;;5068098;28;45379;-76
2022/05/04 05:11:23;;;;;;;;;40.50;34.00;;;;;;;;5079364;28;45417;-78
2022/05/04 05:16:32;;;;;;;;;45.75;38.75;;;;;;;;5068712;27;45735;-80
2022/05/04 05:18:57;;;;;;;;;46.75;38.25;;;;;;;;5069677;28;45311;-79
2022/05/04 05:21:22;;;;;;;;;44.75;37.50;;;;;;;;5064944;27;45579;-76
2022/05/04 05:23:48;;;;;;;;;44.00;36.75;;;;;;;;5059948;28;45576;-79
2022/05/04 05:26:13;;;;;;;;;48.75;39.50;;;;;;;;5075186;28;48058;-79
2022/05/04 05:28:38;;;;;;;;;44.75;38.00;;;;;;;;5060409;28;45421;-79
2022/05/04 05:31:03;;;;;;;;;43.00;37.25;;;;;;;;5059467;28;45502;-81
2022/05/04 05:33:28;;;;;;;;;40.00;34.25;;;;;;;;5060747;28;45249;-79
2022/05/04 05:35:54;;;;;;;;;47.25;37.75;;;;;;;;5060346;28;45272;-79
2022/05/04 05:38:20;;;;;;;;;45.00;38.00;;;;;;;;5060446;28;45339;-79
2022/05/04 05:40:47;;;;;;;;;44.25;37.75;;;;;;;;5060794;28;45430;-80
2022/05/04 05:43:12;;;;;;;;;46.50;39.00;;;;;;;;5058600;28;46028;-79
2022/05/04 05:45:37;;;;;;;;;43.50;36.00;;;;;;;;5059437;28;48365;-80
2022/05/04 05:48:03;;;;;;;;;46.25;37.50;;;;;;;;5058939;28;45403;-80
2022/05/04 05:50:28;;;;;;;;;47.50;39.00;;;;;;;;5060529;28;45374;-79
2022/05/04 05:52:53;;;;;;;;;43.50;36.50;;;;;;;;5059926;28;45300;-79
2022/05/04 05:55:19;;;;;;;;;42.00;35.75;;;;;;;;5060104;28;45397;-79
2022/05/04 05:57:44;;;;;;;;;44.50;36.50;;;;;;;;5071527;28;45852;-79
2022/05/04 06:00:09;;;;;;;;;45.25;37.75;;;;;;;;5068630;28;45437;-79
2022/05/04 06:02:34;;;;;;;;;46.75;39.25;;;;;;;;5060280;28;45350;-79
2022/05/04 06:05:00;;;;;;;;;41.25;34.50;;;;;;;;5060205;28;45505;-79
2022/05/04 06:07:25;;;;;;;;;46.00;39.00;;;;;;;;5060592;28;45639;-78
2022/05/04 06:09:51;;;;;;;;;46.75;37.75;;;;;;;;5079668;28;45349;-79
2022/05/04 06:12:16;;;;;;;;;47.50;38.50;;;;;;;;5080461;27;45234;-79
2022/05/04 06:14:41;;;;;;;;;41.50;33.50;;;;;;;;5081173;27;45424;-79
2022/05/04 06:17:06;;;;;;;;;45.50;34.50;;;;;;;;5080066;27;45271;-78
2022/05/04 06:19:32;;;;;;;;;45.00;36.25;;;;;;;;5080667;27;45543;-78
2022/05/04 06:21:58;;;;;;;;;45.50;35.75;;;;;;;;5079914;28;45262;-79
2022/05/04 06:24:23;;;;;;;;;43.00;35.00;;;;;;;;5068828;27;46078;-77
2022/05/04 06:26:48;;;;;;;;;44.50;38.25;;;;;;;;5061179;28;45428;-78
2022/05/04 06:29:13;;;;;;;;;41.75;36.00;;;;;;;;5059175;28;45389;-79
2022/05/04 06:34:24;;;;;;;;;47.75;36.25;;;;;;;;5059566;28;45670;-78
2022/05/04 06:36:50;;;;;;;;;38.50;32.25;;;;;;;;5074973;28;45801;-78
2022/05/04 06:39:15;;;;;;;;;45.00;37.00;;;;;;;;5076541;28;45313;-77
2022/05/04 06:41:40;;;;;;;;;49.25;40.00;;;;;;;;5064920;28;45429;-79
2022/05/04 06:44:06;;;;;;;;;39.50;34.75;;;;;;;;5058913;28;45486;-79
2022/05/04 06:46:32;;;;;;;;;47.00;39.00;;;;;;;;5066660;28;45512;-79
2022/05/04 06:48:57;;;;;;;;;44.00;36.75;;;;;;;;5079043;28;45299;-78
2022/05/04 06:51:22;;;;;;;;;48.00;41.00;;;;;;;;5078707;27;45371;-78
2022/05/04 06:53:48;;;;;;;;;50.25;40.25;;;;;;;;5078617;27;45372;-78
2022/05/04 06:56:13;;;;;;;;;41.00;34.75;;;;;;;;5078808;27;45347;-78
2022/05/04 06:58:38;;;;;;;;;48.75;40.00;;;;;;;;5078709;28;45507;-78
2022/05/04 07:01:05;;;;;;;;;47.00;38.50;;;;;;;;5079714;27;45564;-78
2022/05/04 07:03:31;;;;;;;;;47.25;38.50;;;;;;;;5078166;28;47385;-79
2022/05/04 07:05:57;;;;;;;;;47.75;39.50;;;;;;;;5078669;27;45304;-78
2022/05/04 07:08:23;;;;;;;;;46.00;38.00;;;;;;;;5079527;27;45297;-77
2022/05/04 07:10:48;;;;;;;;;169.33;152.00;;;;;;;;5079543;27;45579;-78
2022/05/04 07:13:13;;;;;;;;;129.00;113.67;;;;;;;;5079031;27;45405;-78
2022/05/04 07:15:38;;;;;;;;;78.50;73.25;;;;;;;;5088680;27;45262;-79
2022/05/04 07:18:04;;;;;;;;;64.25;50.50;;;;;;;;5100004;27;45353;-79
2022/05/04 07:20:29;;;;;;;;;45.25;37.25;;;;;;;;5099764;27;45545;-78
2022/05/04 07:22:54;;;;;;;;;48.75;39.75;;;;;;;;5099728;27;45322;-79
2022/05/04 07:25:19;;;;;;;;;59.00;46.50;;;;;;;;5099833;27;45349;-78
2022/05/04 07:27:45;;;;;;;;;52.00;40.75;;;;;;;;5094244;27;45338;-78
2022/05/04 07:30:10;;;;;;;;;45.50;37.00;;;;;;;;5079079;28;45341;-77
2022/05/04 07:32:36;;;;;;;;;48.00;38.00;;;;;;;;5078952;27;45379;-79
2022/05/04 07:35:01;;;;;;;;;49.00;38.50;;;;;;;;5077936;27;46607;-79
2022/05/04 07:37:26;;;;;;;;;44.50;37.75;;;;;;;;5076819;27;45499;-78
2022/05/04 07:42:35;;;;;;;;;44.50;37.25;;;;;;;;5056589;28;45473;-78
2022/05/04 07:45:01;;;;;;;;;45.75;39.50;;;;;;;;5056455;28;45496;-79
2022/05/04 07:47:27;;;;;;;;;43.00;36.00;;;;;;;;5057065;28;45574;-78
2022/05/04 07:49:52;;;;;;;;;45.25;38.00;;;;;;;;5055450;28;46129;-78
2022/05/04 07:52:17;;;;;;;;;43.25;36.00;;;;;;;;5056153;28;46313;-79
2022/05/04 07:54:43;;;;;;;;;41.25;35.00;;;;;;;;5056265;28;45382;-80
2022/05/04 07:57:08;;;;;;;;;50.00;39.75;;;;;;;;5060202;28;45691;-79
2022/05/04 07:59:33;;;;;;;;;47.50;38.50;;;;;;;;5076096;28;45998;-80
2022/05/04 08:04:42;;;;;;;;;49.75;40.50;;;;;;;;5075033;28;45433;-80
2022/05/04 08:07:07;;;;;;;;;43.25;37.75;;;;;;;;5065071;27;45483;-79
2022/05/04 08:09:36;;;;;;;;;43.25;36.25;;;;;;;;5069334;28;45339;-79
2022/05/04 08:12:02;;;;;;;;;47.25;39.00;;;;;;;;5076344;28;47512;-79
2022/05/04 08:14:27;;;;;;;;;47.00;39.75;;;;;;;;5078096;27;45272;-79
2022/05/04 08:16:52;;;;;;;;;47.00;39.25;;;;;;;;5097356;27;45782;-79
2022/05/04 08:19:18;;;;;;;;;47.75;39.25;;;;;;;;5084537;27;45341;-79
2022/05/04 08:21:43;;;;;;;;;44.75;37.25;;;;;;;;5086736;28;45607;-79
2022/05/04 08:24:08;;;;;;;;;50.00;40.50;;;;;;;;5085389;28;45199;-79
2022/05/04 08:26:34;;;;;;;;;53.25;42.50;;;;;;;;5085723;27;45222;-79
2022/05/04 08:28:59;;;;;;;;;48.25;39.50;;;;;;;;5081544;28;47228;-80
2022/05/04 08:31:24;;;;;;;;;49.50;40.75;;;;;;;;5080700;27;45458;-79
2022/05/04 08:33:50;;;;;;;;;52.00;42.00;;;;;;;;5080466;27;45338;-80
2022/05/04 08:36:15;;;;;;;;;50.00;39.50;;;;;;;;5070208;28;45298;-80
2022/05/04 08:38:41;;;;;;;;;48.75;40.25;;;;;;;;5083221;28;45482;-79
2022/05/04 08:41:07;;;;;;;;;50.00;40.25;;;;;;;;5081887;28;48003;-80
2022/05/04 08:43:32;;;;;;;;;46.75;40.00;;;;;;;;5088425;27;45306;-80
2022/05/04 08:45:59;;;;;;;;;46.00;38.75;;;;;;;;5083032;27;45435;-80
2022/05/04 08:48:24;;;;;;;;;47.25;39.50;;;;;;;;5085373;27;45282;-80
2022/05/04 08:50:50;;;;;;;;;50.00;41.25;;;;;;;;5080626;27;47192;-79
2022/05/04 08:53:16;;;;;;;;;47.25;38.75;;;;;;;;5086431;27;45344;-80
2022/05/04 08:55:42;;;;;;;;;48.75;40.25;;;;;;;;5084591;27;45420;-81
2022/05/04 08:58:07;;;;;;;;;47.75;39.25;;;;;;;;5079149;27;45555;-78
2022/05/04 09:00:32;;;;;;;;;48.75;40.50;;;;;;;;5083414;27;45225;-78
2022/05/04 09:02:58;;;;;;;;;49.75;41.25;;;;;;;;5060822;27;45264;-78
2022/05/04 09:05:27;;;;;;;;;53.00;43.00;;;;;;;;5067205;28;45431;-78
2022/05/04 09:07:56;;;;;;;;;47.25;40.00;;;;;;;;5063550;28;45271;-79
2022/05/04 09:10:31;;;;;;;;;55.25;44.25;;;;;;;;5064531;28;46454;-80
2022/05/04 09:12:56;;;;;;;;;50.25;40.50;;;;;;;;5075860;28;45486;-82
2022/05/04 09:15:23;;;;;;;;;52.25;42.25;;;;;;;;5072719;27;45505;-79
2022/05/04 09:17:54;;;;;;;;;53.75;43.25;;;;;;;;5075189;28;47615;-79
2022/05/04 09:23:08;;;;;;;;;50.00;41.75;;;;;;;;5076313;28;45550;-78
2022/05/04 09:25:35;;;;;;;;;53.50;42.75;;;;;;;;5076442;28;45383;-79
2022/05/04 09:28:01;;;;;;;;;49.75;41.00;;;;;;;;5080027;28;46112;-79
2022/05/04 09:30:26;;;;;;;;;50.25;41.25;;;;;;;;5077186;27;45551;-78
2022/05/04 09:32:51;;;;;;;;;50.50;41.00;;;;;;;;5075941;28;45909;-79
2022/05/04 09:35:17;;;;;;;;;43.75;37.00;;;;;;;;5061142;28;45315;-77
2022/05/04 09:46:31;;;;;;;;;50.25;42.00;;;;;;;;5043272;28;45337;-78
2022/05/04 09:48:57;;;;;;;;;56.00;42.75;;;;;;;;5061340;28;45308;-78
2022/05/04 09:51:22;;;;;;;;;47.00;39.50;;;;;;;;5064082;28;47012;-79
2022/05/04 09:53:47;;;;;;;;;47.50;39.00;;;;;;;;5065930;28;45255;-79
2022/05/04 09:56:12;;;;;;;;;97.50;88.75;;;;;;;;5068425;28;45348;-78
2022/05/04 09:58:38;;;;;;;;;70.75;57.75;;;;;;;;5068607;28;45216;-79
2022/05/04 10:01:03;;;;;;;;;50.75;40.50;;;;;;;;5068391;28;45498;-79
2022/05/04 10:03:29;;;;;;;;;35.00;31.75;;;;;;;;5067070;28;45213;-78
2022/05/04 10:05:55;;;;;;;;;41.50;35.00;;;;;;;;5060855;28;45312;-79
2022/05/04 10:08:21;;;;;;;;;34.33;31.00;;;;;;;;5061768;28;45348;-79
2022/05/04 10:10:47;;;;;;;;;36.00;31.00;;;;;;;;5074833;28;46617;-79
2022/05/04 10:13:13;;;;;;;;;37.00;31.33;;;;;;;;5082850;28;45304;-79
2022/05/04 10:15:40;;;;;;;;;68.50;56.00;;;;;;;;5090786;27;45369;-79
2022/05/04 10:18:07;;;;;;;;;68.50;54.75;;;;;;;;5101211;27;45505;-78
2022/05/04 10:20:41;;;;;;;;;95.75;88.25;;;;;;;;5101022;27;45556;-78
2022/05/04 10:23:19;;;;;;;;;38.33;34.00;;;;;;;;5101392;27;45183;-79
2022/05/04 10:25:44;;;;;;;;;34.67;30.67;;;;;;;;5104414;27;45380;-79
2022/05/04 10:28:13;;;;;;;;;60.00;48.00;;;;;;;;5102058;27;45389;-79
2022/05/04 10:30:51;;;;;;;;;138.25;121.75;;;;;;;;5099569;27;47280;-77
2022/05/04 10:33:18;;;;;;;;;50.25;40.25;;;;;;;;5100647;27;45325;-80
2022/05/04 10:35:45;;;;;;;;;31.33;29.00;;;;;;;;5072745;28;45357;-79
2022/05/04 10:38:11;;;;;;;;;20.00;15.33;;;;;;;;5061825;28;45327;-81
2022/05/04 10:40:37;;;;;;;;;21.00;19.67;;;;;;;;5060132;28;45401;-81
2022/05/04 10:43:09;;;;;;;;;14.00;13.67;;;;;;;;5060325;28;45287;-79
2022/05/04 10:45:39;;;;;;;;;17.00;17.00;;;;;;;;5060509;28;45342;-82
2022/05/04 10:48:14;;;;;;;;;23.67;18.33;;;;;;;;5061106;28;45353;-80
2022/05/04 10:50:46;;;;;;;;;20.33;18.33;;;;;;;;5058400;28;47944;-79
2022/05/04 10:53:38;;;;;;;;;17.67;16.67;;;;;;;;5059563;28;45418;-79
2022/05/04 10:56:08;;;;;;;;;45.00;37.33;;;;;;;;5052025;28;45564;-81
2022/05/04 10:58:33;;;;;;;;;16.67;14.67;;;;;;;;5061281;28;45430;-80
2022/05/04 11:01:05;;;;;;;;;14.67;14.67;;;;;;;;5060191;28;45942;-80
2022/05/04 11:03:34;;;;;;;;;22.00;19.00;;;;;;;;5058385;28;45390;-81
2022/05/04 11:06:03;;;;;;;;;17.33;15.33;;;;;;;;5076024;28;45373;-80
2022/05/04 11:08:32;;;;;;;;;24.00;20.00;;;;;;;;5059692;27;45334;-78
2022/05/04 11:10:58;;;;;;;;;25.00;24.00;;;;;;;;5075213;28;47197;-80
2022/05/04 11:13:23;;;;;;;;;21.00;20.67;;;;;;;;5078584;27;45489;-78
2022/05/04 11:15:52;;;;;;;;;22.00;21.33;;;;;;;;5070470;27;45473;-81
2022/05/04 11:18:19;;;;;;;;;25.00;23.33;;;;;;;;5074391;28;46237;-79
2022/05/04 11:20:47;;;;;;;;;25.00;24.67;;;;;;;;5058850;28;45623;-80
2022/05/04 11:23:12;;;;;;;;;23.33;23.00;;;;;;;;5073813;28;45828;-77
2022/05/04 11:25:38;;;;;;;;;34.33;31.33;;;;;;;;5060633;28;45278;-81
2022/05/04 11:28:03;;;;;;;;;32.33;29.67;;;;;;;;5057980;28;47194;-79
2022/05/04 11:30:28;;;;;;;;;31.67;28.00;;;;;;;;5059913;28;45321;-79
2022/05/04 11:32:54;;;;;;;;;32.33;31.00;;;;;;;;5057528;28;45346;-79
2022/05/04 11:35:19;;;;;;;;;33.00;28.67;;;;;;;;5064755;28;45396;-80
2022/05/04 11:37:44;;;;;;;;;28.00;27.00;;;;;;;;5060861;28;45296;-80
2022/05/04 11:40:12;;;;;;;;;27.33;26.67;;;;;;;;5058208;28;47386;-80
2022/05/04 11:42:38;;;;;;;;;28.00;26.00;;;;;;;;5065898;28;45408;-82
2022/05/04 11:45:03;;;;;;;;;24.00;23.33;;;;;;;;5077203;27;45442;-82
2022/05/04 11:47:28;;;;;;;;;24.33;21.67;;;;;;;;5072620;28;46109;-81
2022/05/04 11:49:53;;;;;;;;;30.33;28.67;;;;;;;;5076524;28;46596;-78
2022/05/04 11:52:20;;;;;;;;;22.33;22.33;;;;;;;;5081082;27;45365;-81
2022/05/04 11:54:45;;;;;;;;;19.33;18.33;;;;;;;;5083807;27;45377;-79
2022/05/04 11:57:12;;;;;;;;;18.67;18.33;;;;;;;;5087245;28;45274;-79
2022/05/04 11:59:37;;;;;;;;;23.33;23.33;;;;;;;;5086031;27;46070;-78
2022/05/04 12:02:03;;;;;;;;;30.00;25.33;;;;;;;;5083330;28;45255;-79
2022/05/04 12:04:28;;;;;;;;;23.67;21.33;;;;;;;;5088219;27;45283;-78
2022/05/04 12:06:54;;;;;;;;;23.00;22.33;;;;;;;;5086438;27;45295;-78
2022/05/04 12:09:20;;;;;;;;;26.00;22.67;;;;;;;;5085250;27;46179;-79
2022/05/04 12:11:45;;;;;;;;;25.00;23.33;;;;;;;;5080026;28;45278;-79
2022/05/04 12:14:11;;;;;;;;;22.00;21.00;;;;;;;;5077338;27;45228;-78
2022/05/04 12:16:37;;;;;;;;;23.33;22.67;;;;;;;;5073914;27;45357;-78
2022/05/04 12:19:02;;;;;;;;;25.33;22.67;;;;;;;;5070838;27;46049;-77
2022/05/04 12:21:28;;;;;;;;;26.33;24.33;;;;;;;;5077366;27;45438;-79
2022/05/04 12:23:54;;;;;;;;;24.00;23.33;;;;;;;;5084458;27;45258;-79
2022/05/04 12:26:20;;;;;;;;;24.67;23.00;;;;;;;;5084148;27;45258;-81
2022/05/04 12:34:23;;;;;;;;;22.67;21.67;;;;;;;;5068661;28;45432;-80
2022/05/04 12:36:50;;;;;;;;;26.67;22.67;;;;;;;;5062526;28;45721;-80
2022/05/04 12:39:15;;;;;;;;;23.33;20.33;;;;;;;;5060907;28;45319;-80
2022/05/04 12:41:43;;;;;;;;;19.00;18.67;;;;;;;;5061213;28;45302;-79
2022/05/04 12:44:08;;;;;;;;;21.00;19.00;;;;;;;;5062135;28;45343;-79
2022/05/04 12:46:34;;;;;;;;;21.00;19.67;;;;;;;;5076977;27;47007;-79
2022/05/04 12:49:00;;;;;;;;;20.00;20.00;;;;;;;;5077989;28;48115;-79
2022/05/04 12:51:26;;;;;;;;;14.33;14.33;;;;;;;;5075839;27;45412;-80
2022/05/04 12:53:51;;;;;;;;;15.33;13.33;;;;;;;;5075629;28;45207;-79
2022/05/04 12:59:01;;;;;;;;;14.33;13.00;;;;;;;;5068204;28;45396;-79
2022/05/04 13:01:28;;;;;;;;;9.33;9.33;;;;;;;;5061882;28;45288;-81
2022/05/04 13:03:53;;;;;;;;;10.00;8.67;;;;;;;;5072135;28;45337;-80
2022/05/04 13:06:21;;;;;;;;;13.00;10.67;;;;;;;;5074405;28;45423;-81
2022/05/04 13:08:48;;;;;;;;;9.67;9.67;;;;;;;;5076364;28;47115;-82
2022/05/04 13:11:13;;;;;;;;;11.00;11.00;;;;;;;;5066140;28;45393;-80
2022/05/04 13:13:38;;;;;;;;;9.00;9.00;;;;;;;;5067749;28;45349;-80
2022/05/04 13:16:04;;;;;;;;;10.00;10.00;;;;;;;;5083111;27;45495;-82
2022/05/04 13:18:29;;;;;;;;;14.33;14.33;;;;;;;;5075272;28;46332;-80
2022/05/04 13:20:54;;;;;;;;;13.33;13.00;;;;;;;;5080713;28;45858;-84
2022/05/04 13:23:20;;;;;;;;;10.67;9.67;;;;;;;;5081578;27;45330;-83
2022/05/04 13:25:45;;;;;;;;;11.67;11.67;;;;;;;;5081265;28;45378;-80
2022/05/04 13:28:10;;;;;;;;;14.33;12.33;;;;;;;;5079422;28;48081;-79
2022/05/04 13:30:35;;;;;;;;;13.00;11.00;;;;;;;;5081177;28;45285;-77
2022/05/04 13:33:01;;;;;;;;;11.00;11.00;;;;;;;;5080889;27;45499;-79
2022/05/04 13:35:27;;;;;;;;;11.00;10.67;;;;;;;;5081302;28;45529;-77
2022/05/04 13:37:52;;;;;;;;;11.67;11.00;;;;;;;;5081118;27;45306;-79
2022/05/04 13:40:18;;;;;;;;;12.00;12.00;;;;;;;;5080806;28;45264;-80
2022/05/04 13:42:43;;;;;;;;;10.33;10.00;;;;;;;;5081292;27;45314;-79
2022/05/04 13:45:09;;;;;;;;;13.67;10.67;;;;;;;;5081067;28;45240;-78
2022/05/04 13:47:34;;;;;;;;;8.67;8.00;;;;;;;;5081539;27;45585;-79
2022/05/04 13:50:00;;;;;;;;;9.00;7.33;;;;;;;;5080693;28;45596;-80
2022/05/04 13:55:09;;;;;;;;;4.00;4.00;;;;;;;;5080084;28;45410;-79
2022/05/04 13:57:34;;;;;;;;;3.00;2.00;;;;;;;;5076539;28;45548;-80
2022/05/04 14:00:00;;;;;;;;;1.67;1.67;;;;;;;;5080444;28;45129;-81
2022/05/04 14:02:25;;;;;;;;;5.00;5.00;;;;;;;;5080808;27;45604;-78
2022/05/04 14:04:50;;;;;;;;;4.33;3.00;;;;;;;;5079953;27;45785;-79
2022/05/04 14:07:16;;;;;;;;;5.67;5.67;;;;;;;;5078935;28;47122;-78
2022/05/04 14:09:41;;;;;;;;;3.00;3.00;;;;;;;;5079057;28;45348;-78
2022/05/04 14:12:06;;;;;;;;;6.33;6.33;;;;;;;;5080432;27;45536;-77
2022/05/04 14:17:16;;;;;;;;;8.67;8.67;;;;;;;;5064659;28;45720;-77
2022/05/04 14:19:41;;;;;;;;;9.33;9.33;;;;;;;;5058944;28;45268;-79
2022/05/04 14:22:06;;;;;;;;;4.00;3.67;;;;;;;;5071852;28;45515;-77
2022/05/04 14:24:32;;;;;;;;;6.00;4.00;;;;;;;;5079832;27;45888;-76
2022/05/04 14:26:57;;;;;;;;;4.00;4.00;;;;;;;;5080148;27;47046;-79
2022/05/04 14:29:22;;;;;;;;;4.00;4.00;;;;;;;;5080268;27;45353;-79
2022/05/04 14:31:49;;;;;;;;;5.00;4.00;;;;;;;;5078847;28;45346;-77
2022/05/04 14:34:14;;;;;;;;;4.33;4.00;;;;;;;;5080162;27;45362;-77
2022/05/04 14:36:39;;;;;;;;;3.00;3.00;;;;;;;;5079676;27;45455;-77
2022/05/04 14:39:05;;;;;;;;;1.00;1.00;;;;;;;;5080096;27;45369;-78
2022/05/04 14:41:30;;;;;;;;;4.67;4.67;;;;;;;;5078751;28;45324;-78
2022/05/04 14:43:55;;;;;;;;;21.33;20.33;;;;;;;;5074898;27;47106;-78
2022/05/04 14:46:20;;;;;;;;;5.67;5.00;;;;;;;;5068216;28;46232;-77
2022/05/04 14:48:46;;;;;;;;;4.33;4.33;;;;;;;;5078555;28;45284;-77
2022/05/04 14:51:11;;;;;;;;;4.00;4.00;;;;;;;;5080157;28;45248;-77
2022/05/04 14:53:36;;;;;;;;;5.00;4.67;;;;;;;;5071281;28;45895;-77
2022/05/04 14:56:03;;;;;;;;;5.00;5.00;;;;;;;;5060177;28;45279;-79